This is the latest recevied weather packets stored in our database for station/object F4GSP-4. If no packets are shown the sender has not sent any weather packets the latest 10 day(s).
| Time | Temp. | Humidity | Pressure | Rain* | Wind** | Luminosity | Snow |
|---|---|---|---|---|---|---|---|
| 1777547177 | 24.44° C | 51% | 1029.1 hPa | - | - | - | - |
| 1777546277 | 24.44° C | 52% | 1029.1 hPa | - | - | - | - |
| 1777545377 | 22.78° C | 53% | 1029.4 hPa | - | - | - | - |
| 1777544477 | 21.67° C | 53% | 1029.4 hPa | - | - | - | - |
| 1777543577 | 20° C | 54% | 1029.4 hPa | - | - | - | - |
| 1777542676 | 18.89° C | 54% | 1029.4 hPa | - | - | - | - |
| 1777541776 | 19.44° C | 54% | 1029.5 hPa | - | - | - | - |
| 1777540876 | 19.44° C | 54% | 1029.4 hPa | - | - | - | - |
| 1777539976 | 20° C | 55% | 1029.4 hPa | - | - | - | - |
| 1777539076 | 20° C | 56% | 1029.3 hPa | - | - | - | - |
| 1777538175 | 18.33° C | 57% | 1029.3 hPa | - | - | - | - |
| 1777537275 | 17.22° C | 58% | 1029.4 hPa | - | - | - | - |
| 1777536375 | 16.11° C | 58% | 1029.4 hPa | - | - | - | - |
| 1777535475 | 15° C | 58% | 1029.5 hPa | - | - | - | - |
| 1777534575 | 13.89° C | 58% | 1029.5 hPa | - | - | - | - |
| 1777533675 | 12.78° C | 58% | 1029.6 hPa | - | - | - | - |
| 1777532774 | 11.67° C | 58% | 1029.7 hPa | - | - | - | - |
| 1777531874 | 11.67° C | 59% | 1029.5 hPa | - | - | - | - |
| 1777530974 | 11.11° C | 59% | 1029.5 hPa | - | - | - | - |
| 1777530074 | 10.56° C | 58% | 1029.4 hPa | - | - | - | - |
| 1777529174 | 10° C | 58% | 1029.4 hPa | - | - | - | - |
| 1777528274 | 9.44° C | 58% | 1029.3 hPa | - | - | - | - |
| 1777527374 | 9.44° C | 58% | 1029.2 hPa | - | - | - | - |
| 1777526473 | 8.89° C | 58% | 1029.2 hPa | - | - | - | - |
| 1777525573 | 8.89° C | 58% | 1029 hPa | - | - | - | - |
* Rain since midnight (hover to see other rain measurements)
** Current wind speed in m/s (hover to see current wind gust speed)